createdAt,value
2022-09-15T07:49:27.363Z,5.82
2022-09-15T07:51:54.775Z,5.47
2022-09-15T07:54:23.048Z,5.20
2022-09-15T07:56:50.586Z,4.55
2022-09-15T07:59:17.871Z,4.78
2022-09-15T08:01:45.187Z,4.82
2022-09-15T08:04:12.625Z,4.82
2022-09-15T08:06:39.899Z,4.38
2022-09-15T08:09:07.149Z,4.50
2022-09-15T08:11:34.527Z,4.32
2022-09-15T08:14:03.214Z,4.18
2022-09-15T08:16:30.616Z,3.78
2022-09-15T08:18:57.903Z,3.72
2022-09-15T08:21:25.769Z,4.07
2022-09-15T08:23:55.684Z,3.65
2022-09-15T08:26:23.032Z,2.92
2022-09-15T08:28:50.358Z,3.72
2022-09-15T08:31:18.724Z,3.15
2022-09-15T08:33:49.850Z,3.45
2022-09-15T08:36:17.243Z,3.67
2022-09-15T08:38:45.283Z,3.47
2022-09-15T08:41:38.774Z,3.20
2022-09-15T08:44:18.486Z,2.67
2022-09-15T08:47:01.019Z,2.85
2022-09-15T08:49:50.149Z,2.47
2022-09-15T08:52:21.277Z,2.58
2022-09-15T08:54:50.637Z,2.10
2022-09-15T08:57:20.609Z,2.20
2022-09-15T08:59:47.936Z,2.05
2022-09-15T09:02:22.415Z,1.92
2022-09-15T09:05:05.376Z,2.10
2022-09-15T09:07:35.953Z,2.00
2022-09-15T09:10:29.583Z,1.80
2022-09-15T09:13:19.191Z,2.40
2022-09-15T09:15:46.488Z,1.98
2022-09-15T09:18:34.940Z,1.90
2022-09-15T09:21:10.153Z,1.45
2022-09-15T09:23:43.755Z,1.95
2022-09-15T09:26:12.169Z,1.52
2022-09-15T09:28:53.509Z,1.77
2022-09-15T09:31:22.404Z,1.50
2022-09-15T09:34:03.191Z,2.00
2022-09-15T09:36:30.464Z,1.80
2022-09-15T09:38:58.540Z,1.50
2022-09-15T09:41:35.427Z,1.60
2022-09-15T09:44:10.916Z,1.92
2022-09-15T09:46:38.654Z,1.50
2022-09-15T09:49:13.315Z,2.40
2022-09-15T09:51:53.767Z,1.52
2022-09-15T09:54:22.258Z,1.38
2022-09-15T09:56:50.341Z,2.05
2022-09-15T09:59:34.871Z,1.70
2022-09-15T10:02:11.264Z,1.20
2022-09-15T10:04:39.393Z,1.33
2022-09-15T10:07:07.167Z,1.30
2022-09-15T10:09:34.605Z,1.38
2022-09-15T10:12:04.055Z,1.52
2022-09-15T10:14:34.114Z,1.30
2022-09-15T10:17:01.771Z,1.08
2022-09-15T10:19:30.581Z,1.38
2022-09-15T10:21:58.971Z,1.35
2022-09-15T10:24:36.724Z,1.30
2022-09-15T10:27:08.150Z,1.25
2022-09-15T10:29:42.631Z,1.70
2022-09-15T10:32:19.793Z,5.47
2022-09-15T10:34:58.865Z,1.80
2022-09-15T10:37:35.949Z,1.40
2022-09-15T10:40:23.553Z,1.30
2022-09-15T10:42:56.819Z,1.20
2022-09-15T10:45:34.629Z,1.15
2022-09-15T10:48:14.950Z,1.10
2022-09-15T10:50:54.926Z,1.10
2022-09-15T10:53:31.094Z,1.20
2022-09-15T10:56:04.546Z,1.30
2022-09-15T10:58:49.280Z,1.10
2022-09-15T11:01:29.497Z,1.30
2022-09-15T11:04:08.682Z,1.00
2022-09-15T11:06:45.706Z,1.30
2022-09-15T11:09:25.847Z,1.00
2022-09-15T11:12:03.738Z,1.10
2022-09-15T11:14:34.918Z,1.10
2022-09-15T11:17:14.430Z,1.20
2022-09-15T11:20:00.579Z,1.00
2022-09-15T11:22:36.106Z,1.10
2022-09-15T11:25:06.405Z,0.90
2022-09-15T11:27:46.283Z,1.23
2022-09-15T11:30:43.381Z,1.30
2022-09-15T11:33:19.466Z,1.95
2022-09-15T11:35:59.326Z,2.50
2022-09-15T11:38:40.381Z,1.90
2022-09-15T11:41:14.771Z,1.45
2022-09-15T11:43:47.641Z,1.88
2022-09-15T11:46:19.811Z,1.70
2022-09-15T11:48:50.391Z,2.05
2022-09-15T11:51:19.726Z,1.85
2022-09-15T11:53:55.011Z,1.88
2022-09-15T11:56:28.359Z,1.77
2022-09-15T11:59:15.797Z,1.90
2022-09-15T12:02:03.031Z,2.30
2022-09-15T12:04:35.789Z,3.00
2022-09-15T12:07:20.792Z,2.67
2022-09-15T12:09:49.820Z,3.28
2022-09-15T12:12:18.869Z,2.53
2022-09-15T12:14:47.747Z,2.58
2022-09-15T12:17:17.855Z,2.53
2022-09-15T12:20:00.193Z,2.40
2022-09-15T12:22:33.188Z,1.85
2022-09-15T12:25:06.610Z,2.13
2022-09-15T12:27:33.895Z,2.42
2022-09-15T12:30:01.243Z,6.32
2022-09-15T12:32:29.318Z,4.45
2022-09-15T12:34:56.955Z,2.80
2022-09-15T12:37:25.493Z,3.50
2022-09-15T12:39:54.054Z,3.30
2022-09-15T12:42:29.743Z,2.63
2022-09-15T12:44:59.366Z,2.95
2022-09-15T12:47:29.127Z,2.75
2022-09-15T12:49:58.747Z,2.55
2022-09-15T12:52:26.246Z,2.95
2022-09-15T12:54:55.402Z,2.75
2022-09-15T12:57:28.733Z,2.30
2022-09-15T13:00:15.122Z,2.13
2022-09-15T13:02:44.203Z,2.00
2022-09-15T13:05:12.769Z,2.13
2022-09-15T13:07:56.590Z,1.92
2022-09-15T13:10:28.712Z,2.00
2022-09-15T13:13:04.283Z,2.15
2022-09-15T13:15:34.130Z,2.40
2022-09-15T13:18:05.110Z,1.45
2022-09-15T13:20:34.829Z,1.30
2022-09-15T13:23:02.467Z,8.57
2022-09-15T13:25:30.781Z,1.40
2022-09-15T13:27:59.958Z,1.50
2022-09-15T13:30:52.828Z,0.77
2022-09-15T13:33:26.456Z,1.30
2022-09-15T13:35:59.567Z,1.20
2022-09-15T13:38:43.510Z,0.85
2022-09-15T13:41:23.473Z,1.17
2022-09-15T13:44:10.078Z,1.10
2022-09-15T13:46:45.049Z,1.20
2022-09-15T13:49:18.362Z,1.50
2022-09-15T13:51:53.391Z,1.30
2022-09-15T13:54:20.825Z,1.70
2022-09-15T13:56:49.079Z,1.83
2022-09-15T13:59:31.635Z,1.70
2022-09-15T14:01:59.875Z,1.33
2022-09-15T14:04:29.633Z,2.00
2022-09-15T14:07:00.779Z,1.05
2022-09-15T14:09:31.148Z,1.38
2022-09-15T14:11:59.875Z,1.90
2022-09-15T14:14:30.174Z,0.90
2022-09-15T14:16:57.611Z,1.45
2022-09-15T14:19:38.224Z,1.13
2022-09-15T14:22:20.827Z,1.48
2022-09-15T14:24:48.314Z,0.95
2022-09-15T14:27:23.472Z,1.10
2022-09-15T14:29:55.156Z,1.20
2022-09-15T14:34:50.912Z,1.38
2022-09-15T14:37:23.950Z,1.42
2022-09-15T14:39:58.795Z,1.63
2022-09-15T14:42:32.454Z,1.00
2022-09-15T14:48:02.678Z,1.20
2022-09-15T14:50:33.180Z,1.13
2022-09-15T14:53:34.892Z,1.10
2022-09-15T14:56:13.515Z,0.90
2022-09-15T14:58:43.349Z,1.10
2022-09-15T15:01:11.914Z,0.88
2022-09-15T15:03:45.673Z,1.02
2022-09-15T15:06:29.745Z,0.95
2022-09-15T15:09:17.601Z,0.98
2022-09-15T15:11:44.970Z,0.70
2022-09-15T15:14:13.136Z,0.90
2022-09-15T15:16:51.151Z,0.60
2022-09-15T15:19:51.672Z,0.88
2022-09-15T15:22:21.414Z,0.50
2022-09-15T15:24:50.027Z,0.60
2022-09-15T15:27:39.423Z,0.55
2022-09-15T15:30:29.558Z,0.88
2022-09-15T15:33:07.783Z,0.93
2022-09-15T15:35:35.701Z,0.95
2022-09-15T15:38:06.485Z,1.67
2022-09-15T15:40:34.480Z,1.30
2022-09-15T15:43:06.374Z,1.30
2022-09-15T15:45:34.865Z,1.80
2022-09-15T15:48:03.349Z,1.60
2022-09-15T15:50:32.651Z,1.90
2022-09-15T15:53:02.521Z,1.80
2022-09-15T15:55:43.977Z,1.35
2022-09-15T15:58:12.011Z,1.80
2022-09-15T16:00:47.305Z,1.80
2022-09-15T16:03:15.661Z,1.70
2022-09-15T16:05:44.720Z,2.13
2022-09-15T16:08:14.832Z,3.30
2022-09-15T16:10:47.510Z,8.32
2022-09-15T16:13:16.215Z,4.20
2022-09-15T16:15:44.768Z,3.30
2022-09-15T16:18:12.785Z,2.45
2022-09-15T16:20:40.845Z,1.20
2022-09-15T16:23:08.312Z,0.90
2022-09-15T16:25:35.589Z,1.55
2022-09-15T16:28:03.229Z,1.20
2022-09-15T16:30:30.615Z,1.30
2022-09-15T16:32:57.971Z,1.50
2022-09-15T16:35:30.522Z,1.00
2022-09-15T16:37:57.827Z,1.30
2022-09-15T16:40:25.321Z,1.40
2022-09-15T16:42:52.835Z,2.22
2022-09-15T16:45:26.403Z,1.60
2022-09-15T16:47:53.906Z,2.67
2022-09-15T16:50:21.481Z,1.92
2022-09-15T16:52:48.931Z,2.40
2022-09-15T16:55:35.886Z,1.70
2022-09-15T16:58:04.202Z,2.53
2022-09-15T17:00:32.534Z,1.63
2022-09-15T17:02:59.912Z,2.30
2022-09-15T17:05:29.042Z,1.40
2022-09-15T17:07:56.722Z,2.00
2022-09-15T17:10:24.054Z,1.60
2022-09-15T17:12:51.568Z,3.20
2022-09-15T17:15:18.845Z,2.72
2022-09-15T17:17:46.587Z,2.88
2022-09-15T17:20:14.235Z,4.00
2022-09-15T17:22:41.487Z,1.08
2022-09-15T17:25:27.559Z,0.80
2022-09-15T17:27:55.105Z,1.00
2022-09-15T17:30:23.751Z,1.58
2022-09-15T17:32:51.423Z,1.58
2022-09-15T17:35:26.105Z,2.03
2022-09-15T17:37:53.474Z,1.30
2022-09-15T17:40:21.759Z,1.80
2022-09-15T17:42:49.092Z,2.00
2022-09-15T17:45:18.231Z,2.13
2022-09-15T17:47:45.894Z,2.25
2022-09-15T17:50:13.514Z,1.95
2022-09-15T17:52:40.860Z,2.45
2022-09-15T17:55:16.187Z,2.20
2022-09-15T17:57:43.667Z,3.10
2022-09-15T18:00:14.047Z,2.50
2022-09-15T18:02:42.220Z,2.67
2022-09-15T18:05:18.183Z,2.10
2022-09-15T18:07:45.758Z,2.60
2022-09-15T18:10:13.416Z,1.90
2022-09-15T18:12:42.816Z,2.10
2022-09-15T18:15:34.011Z,1.98
2022-09-15T18:18:03.997Z,1.65
2022-09-15T18:20:32.754Z,2.17
2022-09-15T18:23:00.152Z,1.92
2022-09-15T18:25:31.886Z,1.58
2022-09-15T18:30:28.245Z,1.83
2022-09-15T18:32:55.766Z,2.72
2022-09-15T18:35:23.514Z,2.25
2022-09-15T18:37:55.007Z,2.40
2022-09-15T18:40:22.291Z,3.13
2022-09-15T18:42:49.706Z,2.70
2022-09-15T18:45:17.858Z,2.00
2022-09-15T18:47:49.214Z,3.20
2022-09-15T18:50:17.359Z,3.15
2022-09-15T18:52:45.015Z,2.75
2022-09-15T18:55:15.115Z,2.78
2022-09-15T18:57:42.565Z,3.38
2022-09-15T19:00:12.093Z,3.03
2022-09-15T19:02:39.656Z,3.60
2022-09-15T19:05:07.608Z,4.40
2022-09-15T19:07:34.960Z,4.43
2022-09-15T19:10:02.402Z,4.65
2022-09-15T19:12:29.719Z,5.32
2022-09-15T19:14:56.991Z,5.30
2022-09-15T19:17:24.463Z,4.20
2022-09-15T19:19:51.814Z,4.13
2022-09-15T19:22:19.165Z,4.07
2022-09-15T19:24:46.390Z,4.90
2022-09-15T19:27:13.782Z,7.10
2022-09-15T19:29:41.509Z,7.10
2022-09-15T19:32:10.303Z,7.28
2022-09-15T19:34:38.622Z,5.13
2022-09-15T19:37:11.342Z,8.63
2022-09-15T19:39:40.891Z,7.75
2022-09-15T19:42:08.651Z,5.13
2022-09-15T19:44:36.020Z,4.30
2022-09-15T19:47:03.416Z,3.20
2022-09-15T19:49:30.789Z,4.13
2022-09-15T19:51:58.046Z,3.60
2022-09-15T19:54:29.289Z,3.92
2022-09-15T19:56:57.076Z,3.78
2022-09-15T19:59:28.755Z,2.95
2022-09-15T20:01:59.038Z,3.00
2022-09-15T20:04:27.501Z,4.07
2022-09-15T20:06:55.730Z,3.47
2022-09-15T20:09:23.552Z,3.10
2022-09-15T20:11:55.664Z,2.78
2022-09-15T20:14:26.338Z,2.88
2022-09-15T20:16:57.489Z,2.90
2022-09-15T20:19:31.654Z,3.50
2022-09-15T20:21:59.161Z,3.10
2022-09-15T20:24:26.417Z,2.85
2022-09-15T20:26:53.862Z,2.75
2022-09-15T20:29:21.711Z,2.90
2022-09-15T20:31:50.189Z,3.30
2022-09-15T20:34:19.128Z,3.17
2022-09-15T20:36:53.331Z,2.42
2022-09-15T20:39:41.860Z,3.10
2022-09-15T20:42:09.315Z,3.92
2022-09-15T20:44:36.819Z,2.60
2022-09-15T20:47:04.188Z,3.72
2022-09-15T20:49:31.414Z,2.92
2022-09-15T20:51:58.675Z,3.28
2022-09-15T20:54:25.938Z,3.13
2022-09-15T20:56:53.236Z,3.90
2022-09-15T20:59:20.455Z,3.22
2022-09-15T21:01:47.978Z,2.78
2022-09-15T21:04:15.465Z,3.85
2022-09-15T21:06:42.889Z,2.88
2022-09-15T21:09:10.182Z,3.38
2022-09-15T21:11:37.653Z,3.45
2022-09-15T21:14:05.047Z,3.58
2022-09-15T21:16:34.838Z,3.80
2022-09-15T21:19:02.286Z,2.67
2022-09-15T21:21:30.975Z,3.30
2022-09-15T21:24:01.078Z,3.40
2022-09-15T21:26:29.597Z,3.47
2022-09-15T21:28:57.608Z,3.90
2022-09-15T21:31:26.420Z,3.90
2022-09-15T21:33:54.420Z,3.45
2022-09-15T21:36:23.150Z,3.00
2022-09-15T21:38:51.241Z,4.03
2022-09-15T21:41:21.435Z,3.35
2022-09-15T21:43:49.468Z,3.38
2022-09-15T21:46:18.243Z,3.20
2022-09-15T21:48:49.461Z,3.63
2022-09-15T21:51:24.312Z,5.75
2022-09-15T21:53:53.576Z,3.08
2022-09-15T21:56:21.553Z,4.13
2022-09-15T21:58:48.850Z,4.10
2022-09-15T22:01:20.866Z,4.00
2022-09-15T22:03:50.604Z,4.15
2022-09-15T22:06:18.604Z,4.88
2022-09-15T22:08:46.656Z,4.15
2022-09-15T22:11:14.088Z,4.13
2022-09-15T22:13:42.917Z,4.57
2022-09-15T22:16:13.259Z,4.50
2022-09-15T22:18:41.410Z,4.30
2022-09-15T22:21:11.202Z,4.35
2022-09-15T22:23:39.025Z,3.63
2022-09-15T22:26:11.056Z,4.22
2022-09-15T22:28:38.613Z,4.13
2022-09-15T22:31:07.305Z,4.10
2022-09-15T22:33:35.345Z,4.20
2022-09-15T22:36:02.634Z,4.40
2022-09-15T22:38:31.013Z,3.95
2022-09-15T22:41:03.737Z,3.65
2022-09-15T22:43:31.027Z,3.83
2022-09-15T22:45:58.441Z,4.70
2022-09-15T22:48:25.876Z,5.10
2022-09-15T22:50:53.167Z,4.90
2022-09-15T22:53:21.685Z,4.80
2022-09-15T22:55:48.919Z,5.47
2022-09-15T22:58:16.321Z,4.60
2022-09-15T23:00:44.026Z,4.70
2022-09-15T23:03:11.768Z,5.07
2022-09-15T23:05:39.104Z,4.35
2022-09-15T23:08:06.382Z,5.07
2022-09-15T23:10:33.689Z,5.65
2022-09-15T23:13:01.113Z,5.57
2022-09-15T23:15:28.713Z,5.35
2022-09-15T23:17:56.087Z,5.95
2022-09-15T23:20:23.400Z,5.60
2022-09-15T23:22:52.984Z,6.15
2022-09-15T23:25:20.268Z,6.25
2022-09-15T23:27:47.510Z,4.85
2022-09-15T23:30:14.800Z,4.55
2022-09-15T23:32:42.048Z,5.30
2022-09-15T23:35:09.836Z,5.00
2022-09-15T23:37:37.059Z,5.05
2022-09-15T23:40:04.531Z,5.45
2022-09-15T23:42:31.770Z,6.18
2022-09-15T23:44:59.326Z,6.20
2022-09-15T23:47:26.590Z,6.07
2022-09-15T23:49:53.825Z,6.57
2022-09-15T23:52:21.060Z,5.55
2022-09-15T23:54:48.386Z,6.22
2022-09-15T23:57:15.611Z,6.78
2022-09-15T23:59:42.971Z,5.78
